Novyj Ushtogan, Kazakhstan
Current Conditions -  °F | °C
As of 1:30 PM on Friday 24 Oct 2014 (Local Time) from URWA Reporting Station
Overcast Overcast  
Wind Chill: 24°   Ceiling: 13000
Heat Index: 32°   Visibility: 6mi
Dew Point: 16°   Wind: 9mph
Humidity: 51%   Direction: 30°NNE
Pressure: 30.27"   Gusts: 16mph
Location:  47.9°N, 48.8°E
Report Text: URWA 240930Z 03004G07MPS 9999 SCT040 OVC130 M00/M09 Q1025 NOSIGRMK QFE770/1027 SC050
Loading
Personal Weather Stations






























Interactive Weather Map
Tropical Storm Tracking
New forecast layout! Learn more

10-Day Weather Forecast

Advertisements
Track Severe Weather on mobile